createdAt,value
2022-09-26T00:01:59.052Z,11.00
2022-09-26T00:04:06.716Z,10.53
2022-09-26T00:06:09.184Z,9.03
2022-09-26T00:08:11.103Z,10.80
2022-09-26T00:10:13.106Z,9.10
2022-09-26T00:12:15.673Z,9.60
2022-09-26T00:14:24.104Z,8.57
2022-09-26T00:16:26.949Z,9.57
2022-09-26T00:18:28.912Z,9.77
2022-09-26T00:20:30.884Z,14.33
2022-09-26T00:22:32.807Z,8.53
2022-09-26T00:24:34.850Z,9.73
2022-09-26T00:26:37.653Z,9.37
2022-09-26T00:28:40.216Z,10.13
2022-09-26T00:30:44.659Z,10.03
2022-09-26T00:32:46.887Z,9.23
2022-09-26T00:34:48.937Z,8.63
2022-09-26T00:36:50.998Z,8.50
2022-09-26T00:38:53.248Z,9.87
2022-09-26T00:40:55.434Z,11.03
2022-09-26T00:42:58.595Z,10.50
2022-09-26T00:45:00.654Z,13.47
2022-09-26T00:47:02.940Z,8.17
2022-09-26T00:49:07.431Z,11.27
2022-09-26T00:51:09.707Z,10.30
2022-09-26T00:53:18.536Z,12.67
2022-09-26T00:55:24.535Z,11.20
2022-09-26T00:57:32.113Z,11.30
2022-09-26T00:59:37.350Z,12.20
2022-09-26T01:01:39.355Z,17.57
2022-09-26T01:03:43.252Z,8.97
2022-09-26T01:05:45.969Z,12.10
2022-09-26T01:07:48.578Z,13.03
2022-09-26T01:09:51.239Z,9.97
2022-09-26T01:11:53.734Z,10.63
2022-09-26T01:13:57.076Z,13.97
2022-09-26T01:15:59.116Z,12.80
2022-09-26T01:18:02.308Z,10.67
2022-09-26T01:20:16.185Z,13.53
2022-09-26T01:22:36.426Z,10.13
2022-09-26T01:24:50.986Z,13.83
2022-09-26T01:27:00.346Z,10.60
2022-09-26T01:29:17.400Z,12.50
2022-09-26T01:32:04.190Z,8.30
2022-09-26T01:34:19.591Z,8.80
2022-09-26T01:36:29.801Z,11.53
2022-09-26T01:38:35.739Z,9.67
2022-09-26T01:40:52.262Z,9.07
2022-09-26T01:43:07.605Z,9.57
2022-09-26T01:45:20.359Z,10.50
2022-09-26T01:47:28.439Z,11.83
2022-09-26T01:49:44.710Z,7.70
2022-09-26T01:52:08.652Z,8.40
2022-09-26T01:54:23.523Z,8.37
2022-09-26T01:56:28.486Z,9.27
2022-09-26T01:58:51.703Z,9.47
2022-09-26T02:00:54.813Z,10.40
2022-09-26T02:02:57.990Z,10.27
2022-09-26T02:05:07.533Z,9.73
2022-09-26T02:07:13.776Z,10.50
2022-09-26T02:09:18.043Z,10.90
2022-09-26T02:11:20.229Z,8.37
2022-09-26T02:13:31.299Z,14.40
2022-09-26T02:15:35.123Z,9.80
2022-09-26T02:17:42.014Z,8.33
2022-09-26T02:19:55.151Z,12.27
2022-09-26T02:21:58.772Z,10.10
2022-09-26T02:24:01.846Z,10.27
2022-09-26T02:26:03.918Z,7.53
2022-09-26T02:28:06.931Z,12.47
2022-09-26T02:30:09.461Z,8.47
2022-09-26T02:32:16.363Z,11.90
2022-09-26T02:34:19.003Z,10.43
2022-09-26T02:36:22.010Z,8.97
2022-09-26T02:38:26.694Z,10.33
2022-09-26T02:40:51.841Z,11.50
2022-09-26T02:43:17.490Z,13.97
2022-09-26T02:45:19.516Z,8.33
2022-09-26T02:48:09.544Z,13.00
2022-09-26T02:50:18.192Z,11.13
2022-09-26T02:52:42.831Z,15.17
2022-09-26T02:54:58.439Z,11.00
2022-09-26T02:57:18.933Z,15.40
2022-09-26T03:00:04.365Z,12.50
2022-09-26T03:02:15.818Z,12.80
2022-09-26T03:04:31.310Z,15.80
2022-09-26T03:06:37.658Z,14.03
2022-09-26T03:08:44.715Z,13.57
2022-09-26T03:10:47.348Z,15.27
2022-09-26T03:12:49.993Z,11.77
2022-09-26T03:14:56.662Z,11.80
2022-09-26T03:17:01.831Z,14.70
2022-09-26T03:19:10.985Z,13.60
2022-09-26T03:21:14.965Z,16.00
2022-09-26T03:23:17.278Z,14.47
2022-09-26T03:25:24.204Z,14.57
2022-09-26T03:27:38.494Z,10.90
2022-09-26T03:29:40.793Z,10.93
2022-09-26T03:31:50.423Z,12.93
2022-09-26T03:33:54.373Z,16.83
2022-09-26T03:35:56.871Z,15.30
2022-09-26T03:37:58.846Z,11.87
2022-09-26T03:40:06.054Z,13.67
2022-09-26T03:42:26.615Z,21.00
2022-09-26T03:44:30.099Z,19.97
2022-09-26T03:47:04.731Z,13.80
2022-09-26T03:49:12.819Z,18.03
2022-09-26T03:51:15.099Z,17.47
2022-09-26T03:53:17.047Z,15.70
2022-09-26T03:55:19.019Z,21.43
2022-09-26T03:57:21.325Z,16.27
2022-09-26T03:59:28.668Z,12.10
2022-09-26T04:01:30.792Z,16.77
2022-09-26T04:03:35.080Z,18.93
2022-09-26T04:05:37.091Z,15.00
2022-09-26T04:07:39.244Z,21.50
2022-09-26T04:09:41.221Z,14.53
2022-09-26T04:11:43.280Z,18.30
2022-09-26T04:13:53.917Z,25.40
2022-09-26T04:16:01.133Z,18.93
2022-09-26T04:18:03.266Z,18.50
2022-09-26T04:20:05.566Z,16.30
2022-09-26T04:22:08.987Z,24.23
2022-09-26T04:24:15.564Z,14.67
2022-09-26T04:26:23.345Z,15.13
2022-09-26T04:28:26.751Z,19.17
2022-09-26T04:30:30.329Z,14.27
2022-09-26T04:32:35.574Z,22.17
2022-09-26T04:35:09.737Z,16.47
2022-09-26T04:37:13.343Z,17.70
2022-09-26T04:39:16.142Z,18.80
2022-09-26T04:41:20.738Z,21.37
2022-09-26T04:43:24.115Z,18.97
2022-09-26T04:45:26.597Z,20.80
2022-09-26T04:47:28.679Z,18.50
2022-09-26T04:50:02.782Z,19.20
2022-09-26T04:52:06.403Z,14.60
2022-09-26T04:54:08.686Z,21.00
2022-09-26T04:56:15.239Z,20.23
2022-09-26T04:58:17.479Z,18.50
2022-09-26T05:00:19.591Z,20.83
2022-09-26T05:02:21.775Z,24.17
2022-09-26T05:04:27.472Z,17.03
2022-09-26T05:06:30.922Z,21.07
2022-09-26T05:08:36.311Z,16.37
2022-09-26T05:10:38.722Z,14.37
2022-09-26T05:12:40.698Z,18.80
2022-09-26T05:14:44.372Z,13.60
2022-09-26T05:16:47.165Z,15.60
2022-09-26T05:18:51.970Z,16.60
2022-09-26T05:20:55.219Z,20.13
2022-09-26T05:22:58.455Z,15.13
2022-09-26T05:25:19.408Z,18.23
2022-09-26T05:27:23.953Z,19.70
2022-09-26T05:29:25.947Z,16.70
2022-09-26T05:31:40.102Z,33.73
2022-09-26T05:33:42.774Z,50.23
2022-09-26T05:35:48.828Z,62.80
2022-09-26T05:37:58.900Z,50.13
2022-09-26T05:40:20.402Z,45.90
2022-09-26T05:42:26.136Z,82.07
2022-09-26T05:44:28.860Z,106.10
2022-09-26T05:46:31.759Z,133.10
2022-09-26T05:48:46.148Z,294.00
2022-09-26T05:50:53.183Z,215.73
2022-09-26T05:52:59.571Z,241.30
2022-09-26T05:55:01.831Z,231.07
2022-09-26T05:57:54.904Z,157.83
2022-09-26T06:00:00.115Z,145.30
2022-09-26T06:02:20.990Z,83.23
2022-09-26T06:04:49.455Z,85.43
2022-09-26T06:07:17.498Z,70.50
2022-09-26T06:09:19.619Z,66.90
2022-09-26T06:11:40.182Z,32.87
2022-09-26T06:13:48.544Z,21.63
2022-09-26T06:15:50.576Z,29.23
2022-09-26T06:18:04.796Z,19.47
2022-09-26T06:20:07.591Z,17.87
2022-09-26T06:22:11.408Z,11.73
2022-09-26T06:24:13.434Z,14.87
2022-09-26T06:26:22.028Z,11.50
2022-09-26T06:28:24.088Z,10.83
2022-09-26T06:30:27.225Z,9.00
2022-09-26T06:32:39.224Z,6.60
2022-09-26T06:34:52.523Z,7.00
2022-09-26T06:37:16.435Z,7.27
2022-09-26T06:39:18.454Z,9.80
2022-09-26T06:41:22.116Z,7.63
2022-09-26T06:43:24.088Z,14.07
2022-09-26T06:45:58.215Z,9.17
2022-09-26T06:48:06.411Z,6.00
2022-09-26T06:50:31.053Z,5.47
2022-09-26T06:52:34.950Z,5.70
2022-09-26T06:54:37.680Z,3.53
2022-09-26T06:56:39.664Z,10.77
2022-09-26T06:58:42.026Z,12.93
2022-09-26T07:00:44.380Z,9.53
2022-09-26T07:03:19.528Z,5.43
2022-09-26T07:05:30.687Z,8.87
2022-09-26T07:07:40.411Z,9.03
2022-09-26T07:09:43.757Z,9.10
2022-09-26T07:12:15.357Z,5.80
2022-09-26T07:14:18.434Z,10.17
2022-09-26T07:16:27.290Z,3.53
2022-09-26T07:18:47.828Z,7.40
2022-09-26T07:21:09.810Z,6.27
2022-09-26T07:23:23.887Z,3.30
2022-09-26T07:25:26.129Z,7.00
2022-09-26T07:27:28.437Z,7.33
2022-09-26T07:29:30.426Z,9.07
2022-09-26T07:31:32.566Z,4.07
2022-09-26T07:33:41.441Z,4.30
2022-09-26T07:35:46.159Z,4.67
2022-09-26T07:37:52.237Z,2.77
2022-09-26T07:39:57.122Z,8.50
2022-09-26T07:42:04.410Z,22.17
2022-09-26T07:46:47.765Z,3.43
2022-09-26T07:49:08.672Z,3.90
2022-09-26T07:51:39.994Z,5.60
2022-09-26T07:53:46.519Z,5.53
2022-09-26T07:56:12.265Z,4.60
2022-09-26T07:58:43.241Z,3.30
2022-09-26T08:00:58.891Z,6.20
2022-09-26T08:03:20.740Z,4.87
2022-09-26T08:05:24.630Z,3.50
2022-09-26T08:07:27.453Z,2.97
2022-09-26T08:09:38.359Z,4.93
2022-09-26T08:11:49.690Z,5.67
2022-09-26T08:14:17.860Z,4.23
2022-09-26T08:16:31.931Z,4.93
2022-09-26T08:18:37.345Z,4.53
2022-09-26T08:20:39.348Z,4.00
2022-09-26T08:22:41.378Z,14.90
2022-09-26T08:24:49.745Z,8.00
2022-09-26T08:27:12.034Z,6.63
2022-09-26T08:29:16.903Z,7.00
2022-09-26T08:31:21.035Z,8.77
2022-09-26T08:33:25.097Z,7.67
2022-09-26T08:35:27.206Z,4.60
2022-09-26T08:37:32.212Z,5.43
2022-09-26T08:39:57.851Z,5.60
2022-09-26T08:42:55.184Z,2.80
2022-09-26T08:45:43.016Z,7.53
2022-09-26T08:48:43.919Z,3.80
2022-09-26T08:50:54.259Z,5.87
2022-09-26T08:53:08.858Z,4.03
2022-09-26T08:55:19.591Z,2.27
2022-09-26T08:57:39.007Z,4.50
2022-09-26T08:59:43.637Z,4.60
2022-09-26T09:01:49.082Z,2.67
2022-09-26T09:04:15.142Z,3.90
2022-09-26T09:06:18.205Z,5.93
2022-09-26T09:08:24.574Z,4.23
2022-09-26T09:11:21.105Z,5.57
2022-09-26T09:14:19.578Z,4.63
2022-09-26T09:17:18.145Z,1.97
2022-09-26T09:19:39.745Z,12.40
2022-09-26T09:22:40.690Z,2.60
2022-09-26T09:24:55.635Z,5.80
2022-09-26T09:28:00.046Z,4.37
2022-09-26T09:30:18.499Z,5.73
2022-09-26T09:32:49.239Z,7.10
2022-09-26T09:34:59.282Z,7.23
2022-09-26T09:37:43.141Z,5.23
2022-09-26T09:40:32.287Z,3.30
2022-09-26T09:42:48.063Z,4.70
2022-09-26T09:44:58.033Z,6.57
2022-09-26T09:47:00.732Z,5.80
2022-09-26T09:49:17.469Z,5.23
2022-09-26T09:51:35.466Z,5.37
2022-09-26T09:53:55.864Z,3.60
2022-09-26T09:56:27.387Z,4.63
2022-09-26T09:58:52.583Z,8.47
2022-09-26T10:01:13.469Z,7.00
2022-09-26T10:03:40.262Z,5.33
2022-09-26T10:05:47.106Z,6.97
2022-09-26T10:07:59.121Z,5.10
2022-09-26T10:10:27.755Z,6.77
2022-09-26T10:12:51.279Z,4.10
2022-09-26T10:15:22.394Z,5.67
2022-09-26T10:17:56.041Z,8.53
2022-09-26T10:20:35.603Z,3.80
2022-09-26T10:22:45.025Z,6.50
2022-09-26T10:25:03.475Z,4.03
2022-09-26T10:27:19.066Z,8.70
2022-09-26T10:29:33.850Z,7.60
2022-09-26T10:31:42.313Z,6.07
2022-09-26T10:34:05.256Z,2.40
2022-09-26T10:36:19.950Z,2.00
2022-09-26T10:38:27.702Z,2.67
2022-09-26T10:40:47.944Z,3.53
2022-09-26T10:42:51.828Z,1.80
2022-09-26T10:44:57.690Z,4.50
2022-09-26T10:47:22.264Z,3.83
2022-09-26T10:49:56.634Z,6.20
2022-09-26T10:52:48.777Z,9.67
2022-09-26T10:55:04.179Z,5.03
2022-09-26T10:57:09.599Z,3.97
2022-09-26T10:59:14.202Z,3.83
2022-09-26T11:01:21.940Z,2.83
2022-09-26T11:03:40.469Z,3.17
2022-09-26T11:05:58.016Z,4.13
2022-09-26T11:08:06.967Z,3.93
2022-09-26T11:10:32.533Z,3.80
2022-09-26T11:13:19.009Z,2.40
2022-09-26T11:15:26.473Z,6.10
2022-09-26T11:17:49.936Z,3.80
2022-09-26T11:19:58.427Z,2.43
2022-09-26T11:22:14.933Z,3.47
2022-09-26T11:27:30.536Z,3.93
2022-09-26T11:30:09.256Z,16.70
2022-09-26T11:32:26.950Z,3.37
2022-09-26T11:37:36.636Z,4.70
2022-09-26T11:40:00.589Z,4.27
2022-09-26T11:42:13.820Z,6.53
2022-09-26T11:44:37.560Z,3.07
2022-09-26T11:47:10.680Z,3.80
2022-09-26T11:49:36.569Z,7.40
2022-09-26T11:52:18.643Z,7.00
2022-09-26T11:54:48.445Z,2.00
2022-09-26T11:57:11.817Z,1.40
2022-09-26T11:59:17.357Z,10.83
2022-09-26T12:01:27.634Z,3.23
2022-09-26T12:03:36.202Z,7.50
2022-09-26T12:05:56.948Z,1.33
2022-09-26T12:08:30.270Z,3.60
2022-09-26T12:10:45.391Z,4.30
2022-09-26T12:12:51.253Z,2.57
2022-09-26T12:14:53.895Z,3.90
2022-09-26T12:17:02.642Z,6.17
2022-09-26T12:19:15.652Z,1.67
2022-09-26T12:21:22.134Z,2.50
2022-09-26T12:23:36.073Z,9.10
2022-09-26T12:25:47.938Z,5.63
2022-09-26T12:28:36.420Z,2.57
2022-09-26T12:30:57.884Z,4.70
2022-09-26T12:33:03.770Z,6.03
2022-09-26T12:35:38.616Z,3.30
2022-09-26T12:38:02.947Z,3.93
2022-09-26T12:40:11.303Z,3.57
2022-09-26T12:42:38.002Z,2.13
2022-09-26T12:44:40.012Z,7.47
2022-09-26T12:46:51.038Z,4.10
2022-09-26T12:49:24.834Z,1.73
2022-09-26T12:51:43.998Z,2.30
2022-09-26T12:53:56.271Z,2.73
2022-09-26T12:56:07.026Z,2.00
2022-09-26T12:58:22.028Z,2.47
2022-09-26T13:00:24.998Z,3.10
2022-09-26T13:02:35.950Z,3.93
2022-09-26T13:04:47.038Z,3.17
2022-09-26T13:07:20.949Z,3.13
2022-09-26T13:09:40.811Z,2.03
2022-09-26T13:11:58.061Z,10.60
2022-09-26T13:14:19.533Z,3.10
2022-09-26T13:16:27.193Z,2.77
2022-09-26T13:18:38.102Z,2.27
2022-09-26T13:20:43.886Z,3.50
2022-09-26T13:23:06.144Z,6.10
2022-09-26T13:25:11.332Z,2.30
2022-09-26T13:27:17.950Z,11.03
2022-09-26T13:29:24.480Z,3.03
2022-09-26T13:31:32.731Z,5.30
2022-09-26T13:34:02.779Z,2.70
2022-09-26T13:36:05.393Z,3.33
2022-09-26T13:38:30.434Z,1.50
2022-09-26T13:40:38.897Z,2.00
2022-09-26T13:43:08.707Z,2.97
2022-09-26T13:45:19.645Z,1.93
2022-09-26T13:47:22.401Z,7.30
2022-09-26T13:49:50.588Z,1.90
2022-09-26T13:52:19.143Z,2.90
2022-09-26T13:54:32.250Z,4.50
2022-09-26T13:56:34.976Z,5.03
2022-09-26T13:58:40.152Z,2.03
2022-09-26T14:00:49.395Z,5.03
2022-09-26T14:03:10.935Z,3.83
2022-09-26T14:05:18.849Z,2.90
2022-09-26T14:07:51.961Z,2.03
2022-09-26T14:10:13.458Z,3.80
2022-09-26T14:12:21.827Z,3.60
2022-09-26T14:14:26.578Z,2.80
2022-09-26T14:16:28.653Z,3.27
2022-09-26T14:18:47.442Z,3.27
2022-09-26T14:21:10.734Z,2.30
2022-09-26T14:23:34.003Z,4.30
2022-09-26T14:25:55.405Z,7.23
2022-09-26T14:28:10.176Z,3.43
2022-09-26T14:30:28.173Z,3.40
2022-09-26T14:32:42.896Z,3.10
2022-09-26T14:34:55.058Z,2.73
2022-09-26T14:37:02.993Z,4.00
2022-09-26T14:39:05.482Z,2.60
2022-09-26T14:41:17.363Z,4.00
2022-09-26T14:43:19.973Z,2.50
2022-09-26T14:45:29.218Z,2.17
2022-09-26T14:47:40.239Z,2.87
2022-09-26T14:49:42.925Z,3.13
2022-09-26T14:51:48.968Z,1.43
2022-09-26T14:54:07.355Z,2.63
2022-09-26T14:56:14.119Z,4.40
2022-09-26T14:58:17.491Z,3.30
2022-09-26T15:00:43.469Z,4.60
2022-09-26T15:02:50.275Z,6.83
2022-09-26T15:05:06.744Z,3.10
2022-09-26T15:07:20.247Z,3.67
2022-09-26T15:09:26.271Z,4.73
2022-09-26T15:11:48.580Z,2.40
2022-09-26T15:13:52.569Z,2.80
2022-09-26T15:16:09.909Z,10.63
2022-09-26T15:18:15.245Z,3.90
2022-09-26T15:20:19.614Z,1.37
2022-09-26T15:22:25.231Z,6.40
2022-09-26T15:24:36.773Z,2.60
2022-09-26T15:26:43.191Z,4.13
2022-09-26T15:28:47.578Z,3.93
2022-09-26T15:31:41.851Z,3.53
2022-09-26T15:33:43.956Z,1.60
2022-09-26T15:35:55.019Z,3.00
2022-09-26T15:38:00.240Z,1.53
2022-09-26T15:40:16.377Z,3.40
2022-09-26T15:43:02.134Z,5.43
2022-09-26T15:45:23.579Z,3.87
2022-09-26T15:47:39.459Z,1.83
2022-09-26T15:49:41.530Z,2.17
2022-09-26T15:51:45.268Z,5.03
2022-09-26T15:53:47.296Z,2.73
2022-09-26T15:56:07.775Z,4.50
2022-09-26T15:58:13.328Z,1.70
2022-09-26T16:00:15.907Z,1.60
2022-09-26T16:02:38.266Z,2.23
2022-09-26T16:04:40.691Z,1.30
2022-09-26T16:06:52.747Z,2.87
2022-09-26T16:09:24.088Z,2.33
2022-09-26T16:11:26.862Z,2.40
2022-09-26T16:13:35.084Z,1.63
2022-09-26T16:15:37.881Z,2.50
2022-09-26T16:17:49.085Z,8.03
2022-09-26T16:19:59.534Z,3.27
2022-09-26T16:22:22.524Z,3.83
2022-09-26T16:24:34.357Z,3.73
2022-09-26T16:26:36.477Z,2.70
2022-09-26T16:28:42.617Z,3.30
2022-09-26T16:30:51.677Z,3.57
2022-09-26T16:33:33.567Z,3.00
2022-09-26T16:35:37.269Z,2.40
2022-09-26T16:37:39.417Z,2.60
2022-09-26T16:39:41.545Z,3.10
2022-09-26T16:42:02.389Z,2.57
2022-09-26T16:44:26.124Z,2.60
2022-09-26T16:46:36.927Z,3.40
2022-09-26T16:48:42.997Z,1.97
2022-09-26T16:50:45.059Z,3.37
2022-09-26T16:52:47.160Z,2.43
2022-09-26T16:54:49.426Z,1.63
2022-09-26T16:56:51.716Z,3.33
2022-09-26T16:58:59.279Z,3.97
2022-09-26T17:01:20.055Z,2.97
2022-09-26T17:03:32.107Z,2.83
2022-09-26T17:05:34.469Z,5.03
2022-09-26T17:07:36.595Z,2.17
2022-09-26T17:09:41.341Z,5.20
2022-09-26T17:11:47.313Z,4.17
2022-09-26T17:13:49.861Z,5.13
2022-09-26T17:15:55.548Z,2.90
2022-09-26T17:17:58.732Z,2.30
2022-09-26T17:20:01.963Z,4.90
2022-09-26T17:22:05.870Z,2.20
2022-09-26T17:24:16.444Z,4.00
2022-09-26T17:26:21.632Z,2.40
2022-09-26T17:28:30.580Z,5.60
2022-09-26T17:30:32.885Z,3.30
2022-09-26T17:32:37.627Z,4.77
2022-09-26T17:34:39.739Z,2.80
2022-09-26T17:36:48.024Z,5.37
2022-09-26T17:38:50.070Z,3.70
2022-09-26T17:40:52.207Z,2.80
2022-09-26T17:42:56.614Z,3.10
2022-09-26T17:44:58.775Z,4.90
2022-09-26T17:47:01.277Z,3.53
2022-09-26T17:49:05.469Z,2.53
2022-09-26T17:51:09.172Z,2.27
2022-09-26T17:53:17.377Z,8.53
2022-09-26T17:55:21.703Z,2.10
2022-09-26T17:57:30.116Z,3.40
2022-09-26T17:59:35.084Z,2.27
2022-09-26T18:01:37.249Z,6.73
2022-09-26T18:03:39.823Z,2.47
2022-09-26T18:05:42.436Z,3.37
2022-09-26T18:07:45.101Z,5.63
2022-09-26T18:09:47.315Z,2.50
2022-09-26T18:12:03.024Z,13.07
2022-09-26T18:14:06.214Z,4.10
2022-09-26T18:16:09.618Z,5.00
2022-09-26T18:18:18.243Z,4.97
2022-09-26T18:20:23.027Z,2.60
2022-09-26T18:22:31.138Z,4.83
2022-09-26T18:24:33.242Z,2.23
2022-09-26T18:26:44.584Z,3.67
2022-09-26T18:28:46.675Z,5.30
2022-09-26T18:30:56.839Z,3.33
2022-09-26T18:33:00.207Z,3.20
2022-09-26T18:35:04.146Z,2.87
2022-09-26T18:37:06.604Z,2.83
2022-09-26T18:39:08.999Z,2.70
2022-09-26T18:41:11.591Z,2.00
2022-09-26T18:43:17.921Z,2.57
2022-09-26T18:45:35.994Z,2.47
2022-09-26T18:47:42.565Z,10.50
2022-09-26T18:49:46.452Z,6.00
2022-09-26T18:51:48.744Z,2.93
2022-09-26T18:53:50.880Z,4.40
2022-09-26T18:56:11.612Z,2.73
2022-09-26T18:58:23.956Z,3.87
2022-09-26T19:00:27.912Z,5.97
2022-09-26T19:02:33.723Z,3.37
2022-09-26T19:04:35.849Z,3.20
2022-09-26T19:06:41.685Z,4.77
2022-09-26T19:08:46.322Z,5.63
2022-09-26T19:10:48.320Z,3.93
2022-09-26T19:12:50.571Z,6.60
2022-09-26T19:14:52.581Z,3.60
2022-09-26T19:16:55.412Z,2.20
2022-09-26T19:18:57.780Z,4.27
2022-09-26T19:21:01.164Z,2.63
2022-09-26T19:23:03.260Z,3.77
2022-09-26T19:25:06.586Z,5.13
2022-09-26T19:27:21.600Z,9.17
2022-09-26T19:29:36.553Z,4.27
2022-09-26T19:31:38.826Z,3.20
2022-09-26T19:33:43.270Z,2.20
2022-09-26T19:35:45.620Z,2.40
2022-09-26T19:37:48.023Z,3.53
2022-09-26T19:39:50.200Z,2.47
2022-09-26T19:41:52.489Z,2.47
2022-09-26T19:43:54.576Z,3.17
2022-09-26T19:45:56.795Z,6.93
2022-09-26T19:47:59.448Z,3.33
2022-09-26T19:50:01.633Z,2.13
2022-09-26T19:52:03.797Z,3.07
2022-09-26T19:54:06.606Z,7.30
2022-09-26T19:56:09.039Z,2.20
2022-09-26T19:58:14.224Z,3.20
2022-09-26T20:00:19.200Z,3.20
2022-09-26T20:02:28.396Z,4.30
2022-09-26T20:04:30.514Z,3.27
2022-09-26T20:06:32.687Z,4.37
2022-09-26T20:08:35.354Z,2.27
2022-09-26T20:10:37.729Z,4.80
2022-09-26T20:12:39.924Z,3.40
2022-09-26T20:14:42.013Z,5.07
2022-09-26T20:16:44.223Z,4.73
2022-09-26T20:18:48.850Z,2.20
2022-09-26T20:20:54.208Z,2.43
2022-09-26T20:22:56.638Z,3.20
2022-09-26T20:24:58.793Z,3.73
2022-09-26T20:27:02.813Z,2.57
2022-09-26T20:29:05.339Z,3.17
2022-09-26T20:31:28.109Z,2.43
2022-09-26T20:33:30.176Z,3.43
2022-09-26T20:35:36.817Z,3.60
2022-09-26T20:37:40.207Z,2.90
2022-09-26T20:39:42.865Z,4.37
2022-09-26T20:41:44.927Z,3.70
2022-09-26T20:43:49.553Z,2.13
2022-09-26T20:45:51.703Z,3.53
2022-09-26T20:47:53.830Z,2.30
2022-09-26T20:50:01.322Z,2.17
2022-09-26T20:52:03.847Z,2.20
2022-09-26T20:54:09.424Z,2.63
2022-09-26T20:56:16.949Z,2.10
2022-09-26T20:58:19.098Z,9.63
2022-09-26T21:00:21.406Z,1.67
2022-09-26T21:02:38.661Z,1.50
2022-09-26T21:04:40.705Z,3.03
2022-09-26T21:06:43.377Z,2.90
2022-09-26T21:08:45.976Z,2.57
2022-09-26T21:10:48.067Z,2.53
2022-09-26T21:12:50.391Z,1.60
2022-09-26T21:14:52.463Z,3.87
2022-09-26T21:16:54.697Z,2.30
2022-09-26T21:18:56.924Z,5.97
2022-09-26T21:21:05.817Z,1.90
2022-09-26T21:23:28.387Z,2.20
2022-09-26T21:25:31.628Z,2.03
2022-09-26T21:27:33.848Z,1.70
2022-09-26T21:29:35.900Z,3.30
2022-09-26T21:31:38.343Z,1.70
2022-09-26T21:33:40.616Z,1.80
2022-09-26T21:35:42.880Z,3.70
2022-09-26T21:37:47.108Z,6.50
2022-09-26T21:39:49.444Z,2.70
2022-09-26T21:41:54.559Z,3.67
2022-09-26T21:44:03.540Z,3.27
2022-09-26T21:46:06.339Z,1.80
2022-09-26T21:48:08.678Z,2.00
2022-09-26T21:50:13.669Z,3.13
2022-09-26T21:52:25.194Z,1.77
2022-09-26T21:54:32.460Z,2.10
2022-09-26T21:56:38.787Z,2.47
2022-09-26T21:58:41.675Z,2.70
2022-09-26T22:00:43.798Z,7.23
2022-09-26T22:02:45.992Z,2.57
2022-09-26T22:04:48.319Z,1.97
2022-09-26T22:06:50.559Z,2.10
2022-09-26T22:08:52.652Z,3.17
2022-09-26T22:10:54.801Z,4.90
2022-09-26T22:12:56.927Z,2.50
2022-09-26T22:15:02.209Z,2.10
2022-09-26T22:17:04.271Z,3.20
2022-09-26T22:19:06.422Z,3.17
2022-09-26T22:21:10.629Z,2.27
2022-09-26T22:23:12.790Z,2.40
2022-09-26T22:25:15.268Z,3.60
2022-09-26T22:27:17.559Z,1.63
2022-09-26T22:29:19.688Z,2.57
2022-09-26T22:31:21.809Z,2.50
2022-09-26T22:33:24.036Z,1.73
2022-09-26T22:35:26.353Z,4.07
2022-09-26T22:37:28.548Z,2.67
2022-09-26T22:39:30.906Z,2.37
2022-09-26T22:41:33.072Z,2.53
2022-09-26T22:43:36.038Z,3.50
2022-09-26T22:45:38.171Z,1.67
2022-09-26T22:47:40.300Z,2.13
2022-09-26T22:49:42.433Z,1.93
2022-09-26T22:51:44.528Z,2.40
2022-09-26T22:53:46.620Z,3.10
2022-09-26T22:55:54.799Z,1.87
2022-09-26T22:57:57.214Z,4.23
2022-09-26T22:59:59.296Z,1.80
2022-09-26T23:02:01.414Z,2.83
2022-09-26T23:04:03.762Z,3.87
2022-09-26T23:06:06.140Z,2.97
2022-09-26T23:08:08.123Z,1.53
2022-09-26T23:10:10.556Z,2.53
2022-09-26T23:12:12.970Z,1.93
2022-09-26T23:14:15.069Z,3.87
2022-09-26T23:16:20.715Z,1.80
2022-09-26T23:18:22.833Z,4.37
2022-09-26T23:20:24.888Z,5.17
2022-09-26T23:22:26.999Z,2.10
2022-09-26T23:24:29.023Z,2.40
2022-09-26T23:26:32.041Z,2.90
2022-09-26T23:28:34.699Z,1.60
2022-09-26T23:30:36.879Z,2.40
2022-09-26T23:32:38.986Z,1.93
2022-09-26T23:34:41.032Z,4.97
2022-09-26T23:36:44.114Z,2.17
2022-09-26T23:38:46.639Z,3.00
2022-09-26T23:40:48.709Z,2.67
2022-09-26T23:42:50.874Z,2.37
2022-09-26T23:44:52.951Z,2.23
2022-09-26T23:46:55.041Z,3.13
2022-09-26T23:48:57.109Z,3.60
2022-09-26T23:50:59.253Z,2.40
2022-09-26T23:53:06.363Z,2.63
2022-09-26T23:55:09.177Z,2.33
2022-09-26T23:57:11.321Z,2.47
2022-09-26T23:59:13.536Z,1.83
